Meath Environmental Platform

Observations for Trim Market St

Time AQI Temp °C Hum % Pres Pa CO μg/m³ H₂S μg/m³ NO μg/m³ NO₂ μg/m³ O₃ μg/m³ SO₂ μg/m³ PM1 μg/m³ PM2.5 μg/m³ PM10 μg/m³
Thursday 16 July 2026
07:33 1 23.1 63 57,372 0.37 0 0 1.34 0 0 5.7 7.83 12.2
07:28 1 22.5 65 57,133 0.41 0 0 2.39 0 0 7.84 11.17 16.71
07:27 1 22.3 66 57,069 0.42 0 0.92 4.1 0 0 7.13 10.65 15.37
07:25 1 22.1 66 56,920 0.43 0 0 4.58 0 0 7.84 13.06 18.57
07:24 1 22 67 56,836 0.43 0 0 3.26 1.55 0 5.7 9.6 15.94
07:23 1 21.8 67 56,758 0.43 0 1.51 4.17 0 0 7.84 10.55 15.91
07:22 1 21.6 67 56,662 0.41 0 0.56 3.6 0 0 7.84 11.03 15.25
07:21 1 21.5 68 56,570 0.41 0 0 3.19 0.89 0 6.41 13.45 18.44
07:20 1 21.3 68 56,468 0.42 0 0 2.41 0.46 0 7.13 10.5 14.57
07:19 1 21.2 68 56,362 0.4 0 0 3.2 0 0 7.84 11.94 16.46
07:18 1 21.1 68 56,226 0.4 0 0.99 2.69 0 0 7.84 12.9 20.26
07:17 1 20.9 69 56,054 0.44 0 1.8 3.01 0 0 7.84 11.41 16.41
07:16 1 20.8 69 55,856 0.43 0 0 5.11 1.7 0 7.13 9.93 14.49
07:14 1 20.6 70 55,638 0.44 0 0 3.68 0 0 8.55 11.34 15.7
07:11 1 20.3 71 54,736 0.65 0 1.78 5.55 0.35 0 8.55 9.81 14.38
07:10 1 20.2 71 54,322 0.48 0 0.24 4.43 1.73 0 7.84 10.75 16.21
07:07 1 19.8 72 52,672 0.48 0 0.63 6.72 6.02 0 7.84 11.17 15.52
07:06 1 19.7 72 52,059 0.46 0 1.09 7.22 3.79 0 5.7 8.25 11.82
07:04 1 19.4 73 50,547 0.59 0 9.53 12.34 0 0 9.26 11.59 16.06
07:02 1 19.1 74 48,671 0.45 0 0 5.55 8.63 0 8.55 10.59 16.62